Terminal Aerodrome Forecast
Issued by NWS Lake Charles, LA

Home | Current Version | Previous Version | Text Only | Print | Product List | Glossary On
Versions: 1 2 3 4 5 6 7 8 9 10 11 12 13 14 15 16
000
FTUS44 KLCH 302300
TAFARA
TAF
KARA 302323Z 3100/3124 18006KT P6SM -RA SCT025 BKN120
      TEMPO 3100/3104 4SM -SHRA BKN025
     FM310400 17004KT P6SM VCSH SCT025 BKN050
     FM310900 17004KT 4SM BR VCSH SCT025 BKN050
     FM311200 18007KT P6SM VCTS BKN025CB=

USA.gov is the U.S. government's official web portal to all federal, state and local government web resources and services.